Tiempo atmosférico en la estación meteorológica de Córdoba, Córdoba (525 m.)



Fecha
DESCASC
Temp. máxima en grados centígrados (hora)
DESCASC
Temp. mínima en grados centígrados (hora)
DESCASC
Temp. media en grados centígrados
DESCASC
Racha de viento máxima en m/sg (hora)
DESCASC
Velocidad máxima media en intervalos de 10 minutos(hora)
DESCASC
Precipitaciones diarias en mm
DESCASC
Precipitaciones de 00:00 a 06:00 en mm
DESCASC
Precipitaciones de 06:00 a 12:00 en mm
DESCASC
Precipitaciones de 12:00 a 18:00 en mm
DESCASC
Precipitaciones de 18:00 a 24:00 en mm
DESCASC

Gráficas

Temp. máximas Temp. mínimas Temp. medias Precipitaciones Rachas de viento máximas Velocidades máximas media en intervalos de 10 minutos

Datos horarios

Fecha y hora oficial Temperatura (ºC) Velocidad del viento (km/h) Dirección del viento Racha (km/h) Dirección de racha Precipitación (mm) Presión (hPa) Tendencia (hPa) Humedad (%)
2019-04-23 23:00:00 7.1 3 Noroeste 10 Noroeste 0 -- -- 84
2019-04-23 22:00:00 8.3 8 Noroeste 31 Sudoeste 0 -- -- 73
2019-04-23 21:00:00 9.6 17 Sudoeste 31 Sudoeste 0 -- -- 64
2019-04-23 20:00:00 10.9 3 Oeste 25 Sudoeste 0 -- -- 72
2019-04-23 19:00:00 10.7 8 Oeste 35 Oeste 1.2 -- -- 76
2019-04-23 18:00:00 11.3 17 Sudoeste 33 Sur 0 -- -- 67
2019-04-23 17:00:00 10.8 11 Sudoeste 28 Sudoeste 0 -- -- 74
2019-04-23 16:00:00 8.7 14 Sudoeste 32 Sudoeste 1.4 -- -- 86
2019-04-23 15:00:00 11.9 18 Sudoeste 31 Sudoeste 0.2 -- -- 67
2019-04-23 14:00:00 10.5 13 Oeste 41 Sudoeste 0.2 -- -- 67
2019-04-23 13:00:00 12.6 14 Sudoeste 35 Sudoeste 0 -- -- 58
2019-04-23 12:00:00 10.3 19 Sudoeste 33 Sudoeste 0 -- -- 72
2019-04-23 11:00:00 8 9 Oeste 25 Sudoeste 0.2 -- -- 83
2019-04-23 10:00:00 8.1 6 Oeste 21 Oeste 0 -- -- 93
2019-04-23 09:00:00 8.1 9 Noroeste 19 Noroeste 0.4 -- -- 94
2019-04-23 08:00:00 8.6 5 Norte 54 Sudoeste 7.2 -- -- 93
2019-04-23 07:00:00 10.6 23 Sudoeste 43 Sudoeste 0 -- -- 91
2019-04-23 06:00:00 10.8 22 Sudoeste 43 Sudoeste 0 -- -- 89
2019-04-23 05:00:00 10.9 20 Sudoeste 39 Sur 0 -- -- 86
2019-04-23 04:00:00 11.1 24 Sudoeste 49 Sudoeste 0 -- -- 83
2019-04-23 03:00:00 11.3 26 Sudoeste 40 Sudoeste 0 -- -- 86
2019-04-23 02:00:00 11.5 24 Sudoeste 48 Sudoeste 0 -- -- 86
2019-04-23 01:00:00 11.8 26 Sudoeste 48 Sudoeste 0 -- -- 85
2019-04-23 00:00:00 12.3 27 Sudoeste 48 Sudoeste 0 -- -- 84
2019-04-22 23:00:00 13.6 21 Sudoeste 40 Sudoeste 0 -- -- 73
2019-04-22 22:00:00 15.4 19 Sudoeste 40 Sudoeste 0 -- -- 58
2019-04-22 21:00:00 17.1 21 Sudoeste 35 Sudoeste 0 -- -- 53
2019-04-22 20:00:00 18.5 12 Sudoeste 32 Sudoeste 0 -- -- 44
2019-04-22 19:00:00 19.2 18 Sudoeste 32 Sudoeste 0 -- -- 47
2019-04-22 18:00:00 18.8 19 Sudoeste 37 Sudoeste 0 -- -- 52
2019-04-22 17:00:00 17.6 14 Sudoeste 30 Sudoeste 0 -- -- 54
2019-04-22 16:00:00 18.7 17 Sudoeste 28 Sudoeste 0 -- -- 51
2019-04-22 15:00:00 17.2 14 Sudoeste 26 Sudoeste 0 -- -- 54
2019-04-22 14:00:00 16.6 13 Sudoeste 21 Sudoeste 0 -- -- 57
2019-04-22 13:00:00 16.2 9 Oeste 19 Oeste 0 -- -- 55
2019-04-22 12:00:00 15.1 3 Este 12 Sudoeste 0 -- -- 59
2019-04-22 11:00:00 14.4 3 Nordeste 8 Nordeste 0 -- -- 59
2019-04-22 10:00:00 11.5 2 Sudoeste 4 Sudoeste 0 -- -- 74
2019-04-22 09:00:00 8.8 0 Calma 4 Sur 0 -- -- 84
2019-04-22 08:00:00 7.8 0 Calma 9 Norte 0 -- -- 86
2019-04-22 07:00:00 9.1 6 Norte 19 Norte 0 -- -- 79
2019-04-22 06:00:00 9.5 9 Norte 18 Noroeste 0 -- -- 77
2019-04-22 05:00:00 9.8 9 Noroeste 18 Noroeste 0 -- -- 75
2019-04-22 04:00:00 10.4 8 Norte 18 Noroeste 0 -- -- 74
2019-04-22 03:00:00 10.4 9 Norte 16 Norte 0 -- -- 75
2019-04-22 02:00:00 10.4 4 Norte 9 Norte 0 -- -- 76
2019-04-22 01:00:00 10.6 3 Norte 9 Nordeste 0 -- -- 76
2019-04-22 00:00:00 11.1 4 Norte 14 Nordeste 0 -- -- 73
2019-04-21 23:00:00 11.3 8 Norte 14 Nordeste 0 -- -- 71
2019-04-21 22:00:00 11.9 8 Nordeste 20 Nordeste 0 -- -- 67
2019-04-21 21:00:00 12.1 10 Nordeste 27 Norte 0 -- -- 68
2019-04-21 20:00:00 12.6 15 Nordeste 26 Nordeste 0 -- -- 66
2019-04-21 19:00:00 13 14 Nordeste 27 Nordeste 0 -- -- 65
2019-04-21 18:00:00 13.8 12 Nordeste 28 Nordeste 0 -- -- 64
2019-04-21 17:00:00 14 12 Nordeste 28 Nordeste 0 -- -- 65
2019-04-21 16:00:00 13.6 15 Nordeste 27 Nordeste 0 -- -- 65
2019-04-21 15:00:00 14 15 Nordeste 27 Nordeste 0 -- -- 63
2019-04-21 14:00:00 14.6 15 Nordeste 25 Nordeste 0 -- -- 60
2019-04-21 13:00:00 13.1 15 Nordeste 26 Nordeste 0 -- -- 68
2019-04-21 12:00:00 12.8 14 Nordeste 27 Nordeste 0 -- -- 67
2019-04-21 11:00:00 12 15 Nordeste 25 Nordeste 0 -- -- 68
2019-04-21 10:00:00 10.7 11 Nordeste 22 Norte 0 -- -- 74
2019-04-21 09:00:00 10.2 10 Nordeste 20 Norte 0 -- -- 76
2019-04-21 08:00:00 9.9 9 Nordeste 19 Nordeste 0 -- -- 76
2019-04-21 07:00:00 10.4 10 Nordeste 22 Nordeste 0 -- -- 75
2019-04-21 06:00:00 10.5 10 Nordeste 23 Norte 0 -- -- 74
2019-04-21 05:00:00 10.9 12 Nordeste 21 Nordeste 0 -- -- 73
2019-04-21 04:00:00 11.1 9 Nordeste 20 Nordeste 0 -- -- 74
2019-04-21 03:00:00 11.3 10 Nordeste 21 Nordeste 0 -- -- 72
2019-04-21 02:00:00 11.8 15 Nordeste 27 Nordeste 0 -- -- 69
2019-04-21 01:00:00 12 12 Nordeste 30 Nordeste 0 -- -- 68
2019-04-21 00:00:00 12.1 12 Nordeste 32 Nordeste 0 -- -- 67
2019-04-20 23:00:00 12.3 14 Nordeste 38 Nordeste 0 -- -- 67
2019-04-20 22:00:00 12.4 21 Nordeste 40 Nordeste 0 -- -- 65
2019-04-20 21:00:00 13.2 21 Nordeste 37 Nordeste 0 -- -- 69
2019-04-20 20:00:00 13.6 24 Nordeste 40 Nordeste 0 -- -- 68
2019-04-20 19:00:00 13.9 19 Nordeste 31 Nordeste 0 -- -- 68
2019-04-20 18:00:00 14.6 16 Nordeste 39 Nordeste 0 -- -- 65
2019-04-20 17:00:00 15.3 17 Nordeste 44 Nordeste 0 -- -- 62
2019-04-20 16:00:00 15.1 17 Nordeste 43 Nordeste 0 -- -- 63
2019-04-20 15:00:00 14.6 25 Nordeste 44 Este 0 -- -- 64
2019-04-20 14:00:00 14.7 19 Nordeste 41 Nordeste 0 -- -- 63
2019-04-20 13:00:00 13.9 18 Nordeste 35 Nordeste 0 -- -- 66
2019-04-20 12:00:00 13.4 20 Nordeste 42 Nordeste 0 -- -- 70
2019-04-20 11:00:00 11.8 18 Nordeste 36 Nordeste 0 -- -- 80
2019-04-20 10:00:00 10.4 15 Nordeste 28 Nordeste 0.6 -- -- 91
2019-04-20 09:00:00 9.6 13 Nordeste 25 Nordeste 2.8 -- -- 93
2019-04-20 08:00:00 9.9 12 Nordeste 24 Norte 0.2 -- -- 85
2019-04-20 07:00:00 10 12 Nordeste 29 Norte 0 -- -- 84
2019-04-20 06:00:00 9 9 Norte 18 Norte 0 -- -- 87
2019-04-20 05:00:00 8.4 10 Norte 18 Norte 0.2 -- -- 88
2019-04-20 04:00:00 8 9 Norte 17 Norte 0 -- -- 93
2019-04-20 03:00:00 7.6 11 Norte 17 Norte 0 -- -- 95
2019-04-20 02:00:00 8 6 Nordeste 9 Nordeste 0 -- -- 95
2019-04-20 01:00:00 7.9 0 Calma 9 Nordeste 0 -- -- 94
2019-04-20 00:00:00 8.6 3 Nordeste 12 Nordeste 0 -- -- 94
2019-04-19 23:00:00 9.3 3 Nordeste 9 Nordeste 0 -- -- 93
2019-04-19 22:00:00 9.8 2 Nordeste 12 Nordeste 0 -- -- 92
2019-04-19 21:00:00 10.3 6 Nordeste 13 Nordeste 0.4 -- -- 93
2019-04-19 20:00:00 9.8 3 Noroeste 35 Nordeste 8.8 -- -- 91
2019-04-19 19:00:00 16.2 7 Norte 15 Norte 0.2 -- -- 57
2019-04-19 18:00:00 16.7 6 Norte 19 Norte 0 -- -- 57
2019-04-19 17:00:00 13 8 Norte 24 Este 0.2 -- -- 78
2019-04-19 16:00:00 15.7 15 Nordeste 24 Nordeste 0 -- -- 62
2019-04-19 15:00:00 15.3 4 Este 12 Este 0 -- -- 61
2019-04-19 14:00:00 15.3 7 Este 14 Este 0 -- -- 61
2019-04-19 13:00:00 14.3 6 Nordeste 14 Este 0 -- -- 65
2019-04-19 12:00:00 13.2 6 Este 14 Este 0.2 -- -- 72
2019-04-19 11:00:00 11.1 3 Nordeste 9 Este 0 -- -- 81
2019-04-19 10:00:00 9.1 4 Este 9 Sudeste 0 -- -- 95
2019-04-19 09:00:00 8.4 0 Calma 6 Este 0 -- -- 95
2019-04-19 08:00:00 8.2 2 Este 5 Este 0 -- -- 95
2019-04-19 07:00:00 8.3 0 Calma 9 Sudoeste 0 -- -- 95
2019-04-19 06:00:00 8.3 4 Sudoeste 13 Oeste 0 -- -- 95
2019-04-19 05:00:00 8.5 7 Oeste 13 Sudoeste 0 -- -- 95
2019-04-19 04:00:00 8.4 8 Sudoeste 15 Sudoeste 0 -- -- 95
2019-04-19 03:00:00 8.5 8 Sudoeste 12 Sudoeste 0 -- -- 95
2019-04-19 02:00:00 8.7 7 Sudoeste 13 Sudoeste 0 -- -- 95
2019-04-19 01:00:00 8.7 8 Sudoeste 13 Sudoeste 0 -- -- 94
2019-04-19 00:00:00 9.3 5 Sudoeste 9 Sudoeste 0 -- -- 93
2019-04-18 23:00:00 9.4 0 Calma 4 Sudoeste 0 -- -- 93
2019-04-18 22:00:00 9.8 0 Calma 9 Norte 0 -- -- 90
2019-04-18 21:00:00 10.3 2 Sudeste 12 Oeste 0.2 -- -- 87
2019-04-18 20:00:00 10.6 8 Oeste 19 Sudoeste 0 -- -- 85
2019-04-18 19:00:00 12.1 15 Sudoeste 26 Oeste 0 -- -- 84
2019-04-18 18:00:00 13.1 9 Sudoeste 15 Sudoeste 0 -- -- 81
2019-04-18 17:00:00 13.9 4 Noroeste 19 Norte 0 -- -- 70
2019-04-18 16:00:00 11.7 7 Norte 22 Oeste 1.2 -- -- 88
2019-04-18 15:00:00 10.7 7 Oeste 15 Sudoeste 1.8 -- -- 92
2019-04-18 14:00:00 9.9 0 Calma 25 Norte 7.2 -- -- 89
2019-04-18 13:00:00 13.6 5 Sur 17 Sudoeste 0.2 -- -- 74
2019-04-18 12:00:00 13.5 7 Sudeste 14 Sur 0 -- -- 72
2019-04-18 11:00:00 13 4 Sudoeste 13 Sudoeste 0 -- -- 75
2019-04-18 10:00:00 11.2 5 Sudoeste 10 Sudoeste 0 -- -- 86
2019-04-18 09:00:00 10.1 0 Calma 5 Sur 0 -- -- 92
2019-04-18 08:00:00 10 0 Calma 4 Este 0 -- -- 91
2019-04-18 07:00:00 10 0 Calma 5 Sudoeste 0 -- -- 91
2019-04-18 06:00:00 10 0 Calma 6 Sudoeste 0 -- -- 88
2019-04-18 05:00:00 10.2 0 Calma 6 Sudoeste 0 -- -- 84
2019-04-18 04:00:00 10.6 0 Calma 5 Sudoeste 0 -- -- 83
2019-04-18 03:00:00 11.1 0 Calma 9 Oeste 0 -- -- 80
2019-04-18 02:00:00 11 3 Sudoeste 21 Este 0 -- -- 82
2019-04-18 01:00:00 11.8 5 Este 13 Este 0 -- -- 77
2019-04-18 00:00:00 12.8 2 Sur 19 Sudoeste 0 -- -- 69
2019-04-17 23:00:00 13.2 10 Sudoeste 33 Oeste 0 -- -- 65
2019-04-17 22:00:00 13.7 17 Oeste 31 Oeste 0 -- -- 71
2019-04-17 21:00:00 14.9 12 Sudoeste 40 Sudoeste 0 -- -- 72
2019-04-17 20:00:00 16.1 23 Sudoeste 44 Sudoeste 0 -- -- 64
2019-04-17 19:00:00 17 23 Sudoeste 54 Sudoeste 0 -- -- 61
2019-04-17 18:00:00 17.9 25 Sudoeste 40 Sudoeste 0 -- -- 59
2019-04-17 17:00:00 18.8 14 Oeste 30 Sudoeste 0 -- -- 53
2019-04-17 16:00:00 18.8 14 Sudoeste 39 Sudoeste 0 -- -- 52
2019-04-17 15:00:00 18.9 22 Sudoeste 38 Sur 0 -- -- 54
2019-04-17 14:00:00 20.2 24 Sudoeste 39 Sudoeste 0 -- -- 48
2019-04-17 13:00:00 19.4 16 Sudoeste 32 Oeste 0 -- -- 48
2019-04-17 12:00:00 19.4 15 Sudoeste 26 Sudoeste 0 -- -- 44
2019-04-17 11:00:00 17.3 4 Este 11 Sudeste 0 -- -- 50
2019-04-17 10:00:00 14.4 3 Noroeste 8 Sudoeste 0 -- -- 63
2019-04-17 09:00:00 10.7 0 Calma 8 Nordeste 0 -- -- 77
2019-04-17 08:00:00 8.5 4 Nordeste 6 Nordeste 0 -- -- 87
2019-04-17 07:00:00 9.3 2 Nordeste 8 Nordeste 0 -- -- 84
2019-04-17 06:00:00 10.3 3 Norte 9 Nordeste 0 -- -- 76
2019-04-17 05:00:00 11.6 0 Calma 17 Oeste 0 -- -- 67
2019-04-17 04:00:00 12.6 10 Sudoeste 21 Sudoeste 0 -- -- 60
2019-04-17 03:00:00 11.9 5 Sudoeste 12 Sudoeste 0 -- -- 60
2019-04-17 02:00:00 12.6 8 Sudoeste 17 Sudoeste 0 -- -- 45
2019-04-17 01:00:00 13.7 9 Sudoeste 15 Oeste 0 -- -- 40
2019-04-17 00:00:00 14.4 5 Sudoeste 13 Sudoeste 0 -- -- 43
2019-04-16 23:00:00 15 3 Oeste 6 Oeste 0 -- -- 50
2019-04-16 22:00:00 16.3 4 Sudoeste 10 Sudoeste 0 -- -- 60
2019-04-16 21:00:00 19.6 3 Sur 13 Sur 0 -- -- 49
2019-04-16 20:00:00 22.9 6 Sudoeste 16 Sudoeste 0 -- -- 40
2019-04-16 19:00:00 23.4 10 Sudoeste 21 Sudoeste 0 -- -- 38
2019-04-16 18:00:00 23.5 10 Sur 21 Sudoeste 0 -- -- 34
2019-04-16 17:00:00 23.1 9 Sudoeste 23 Sudoeste 0 -- -- 31
2019-04-16 16:00:00 22.6 8 Sudeste 18 Sudeste 0 -- -- 29
2019-04-16 15:00:00 21.6 6 Este 18 Sudeste 0 -- -- 27
2019-04-16 14:00:00 19.6 6 Este 20 Sudeste 0 -- -- 41
2019-04-16 13:00:00 18.6 8 Este 22 Nordeste 0 -- -- 54
2019-04-16 12:00:00 16.6 9 Este 18 Este 0 -- -- 62
2019-04-16 11:00:00 15.5 5 Este 13 Este 0 -- -- 68
2019-04-16 10:00:00 14.1 5 Este 12 Este 0 -- -- 71
2019-04-16 09:00:00 9.6 3 Nordeste 8 Este 0 -- -- 93
2019-04-16 08:00:00 7.7 4 Nordeste 7 Nordeste 0 -- -- 93
2019-04-16 07:00:00 7.9 0 Calma 10 Nordeste 0 -- -- 92
2019-04-16 06:00:00 8.6 7 Nordeste 11 Nordeste 0 -- -- 92
2019-04-16 05:00:00 8.6 0 Calma 13 Norte 0 -- -- 92
2019-04-16 04:00:00 9.3 0 Calma 5 Este 0 -- -- 91
2019-04-16 03:00:00 9.9 2 Noroeste 4 Nordeste 0 -- -- 89
2019-04-16 02:00:00 10.9 0 Calma 5 Este 0 -- -- 84
2019-04-16 01:00:00 12.7 0 Calma 9 Oeste 0 -- -- 76
2019-04-16 00:00:00 14.2 2 Noroeste 11 Sudoeste 0 -- -- 73
2019-04-15 23:00:00 15.8 5 Oeste 18 Oeste 0 -- -- 67
2019-04-15 22:00:00 16.8 5 Oeste 18 Noroeste 0 -- -- 67
2019-04-15 21:00:00 17.7 12 Noroeste 42 Sudoeste 0 -- -- 63
2019-04-15 20:00:00 20.3 19 Sudoeste 43 Sudoeste 0 -- -- 42
2019-04-15 19:00:00 21.8 26 Sudoeste 48 Sur 0 -- -- 37
2019-04-15 18:00:00 22.8 25 Sudoeste 46 Sudoeste 0 -- -- 38
2019-04-15 17:00:00 23.3 23 Sudoeste 41 Sudoeste 0 -- -- 33
2019-04-15 16:00:00 23.2 23 Sudoeste 48 Sudoeste 0 -- -- 27
2019-04-15 15:00:00 23.2 20 Sudoeste 42 Sudoeste 0 -- -- 30
2019-04-15 14:00:00 22.5 20 Sudoeste 33 Sudoeste 0 -- -- 32
2019-04-15 13:00:00 20.9 15 Sudoeste 29 Sur 0 -- -- 50
2019-04-15 12:00:00 20 16 Sudoeste 33 Sudoeste 0 -- -- 52
2019-04-15 11:00:00 18.2 9 Sudoeste 23 Sudoeste 0 -- -- 59
2019-04-15 10:00:00 16.5 4 Este 9 Sudeste 0 -- -- 67
2019-04-15 09:00:00 12.3 0 Calma 5 Este 0 -- -- 94
2019-04-15 08:00:00 10.4 0 Calma 5 Este 0 -- -- 94
2019-04-15 07:00:00 10.3 3 Nordeste 5 Nordeste 0 -- -- 93
2019-04-15 06:00:00 10.7 4 Nordeste 6 Nordeste 0 -- -- 93
2019-04-15 05:00:00 11.2 4 Nordeste 6 Nordeste 0 -- -- 91
2019-04-15 04:00:00 11.8 5 Nordeste 7 Nordeste 0 -- -- 89
2019-04-15 03:00:00 12.6 2 Norte 6 Nordeste 0 -- -- 88
2019-04-15 02:00:00 13.6 3 Nordeste 6 Nordeste 0 -- -- 85
2019-04-15 01:00:00 14.1 4 Nordeste 6 Nordeste 0 -- -- 85
2019-04-15 00:00:00 14.7 3 Nordeste 5 Nordeste 0 -- -- 82
2019-04-14 23:00:00 16 0 Calma 4 Noroeste 0 -- -- 77
2019-04-14 22:00:00 16.9 0 Calma 6 Oeste 0 -- -- 70
2019-04-14 21:00:00 18.8 4 Sudoeste 14 Sudoeste 0 -- -- 62
2019-04-14 20:00:00 20.6 10 Sudoeste 24 Sudoeste 0 -- -- 54
2019-04-14 19:00:00 22 15 Sudoeste 22 Sudoeste 0 -- -- 49
2019-04-14 18:00:00 23 12 Sudoeste 21 Sudoeste 0 -- -- 50
2019-04-14 17:00:00 23.2 6 Sur 18 Sur 0 -- -- 49
2019-04-14 16:00:00 23.2 11 Sur 19 Sudoeste 0 -- -- 49
2019-04-14 15:00:00 21.2 4 Nordeste 13 Sur 0 -- -- 54
2019-04-14 14:00:00 21.5 5 Sudeste 15 Sur 0 -- -- 53
2019-04-14 13:00:00 20.3 5 Sudoeste 16 Este 0 -- -- 57
2019-04-14 12:00:00 18.9 4 Nordeste 9 Noroeste 0 -- -- 61
2019-04-14 11:00:00 16.4 4 Nordeste 10 Nordeste 0 -- -- 71
2019-04-14 10:00:00 14.3 5 Nordeste 9 Norte 0 -- -- 81
2019-04-14 09:00:00 10 3 Nordeste 6 Este 0 -- -- 90
2019-04-14 08:00:00 9 0 Calma 5 Nordeste 0 -- -- 88
2019-04-14 07:00:00 10.1 3 Nordeste 8 Noroeste 0 -- -- 83
2019-04-14 06:00:00 10.6 3 Norte 19 Noroeste 0 -- -- 76
2019-04-14 05:00:00 9 2 Oeste 7 Nordeste 0 -- -- 79
2019-04-14 04:00:00 9.6 0 Calma 9 Noroeste 0 -- -- 82
2019-04-14 03:00:00 10.3 2 Nordeste 5 Nordeste 0 -- -- 76
2019-04-14 02:00:00 10.7 2 Nordeste 8 Nordeste 0 -- -- 72
2019-04-14 01:00:00 12.6 2 Nordeste 10 Oeste 0 -- -- 62
2019-04-14 00:00:00 13.2 6 Oeste 14 Oeste 0 -- -- 60
2019-04-13 23:00:00 14.5 7 Oeste 23 Sudoeste 0 -- -- 55
2019-04-13 22:00:00 15.6 8 Oeste 16 Sudoeste 0 -- -- 51
2019-04-13 21:00:00 17.5 11 Sudoeste 23 Sudoeste 0 -- -- 45
2019-04-13 20:00:00 19.9 14 Sudoeste 30 Oeste 0 -- -- 41
2019-04-13 19:00:00 21.3 18 Sudoeste 30 Sudoeste 0 -- -- 38
2019-04-13 18:00:00 21.9 14 Sudoeste 28 Sudoeste 0 -- -- 36
2019-04-13 17:00:00 22.1 8 Oeste 28 Sudoeste 0 -- -- 37
2019-04-13 16:00:00 21.3 10 Sur 23 Sudoeste 0 -- -- 37
2019-04-13 15:00:00 20.4 12 Sudoeste 24 Sudoeste 0 -- -- 34
2019-04-13 14:00:00 19.7 7 Sur 19 Sur 0 -- -- 37
2019-04-13 13:00:00 18.8 4 Sudeste 14 Este 0 -- -- 38
2019-04-13 12:00:00 17.4 5 Este 11 Nordeste 0 -- -- 45
2019-04-13 11:00:00 15.7 5 Este 13 Este 0 -- -- 49
2019-04-13 10:00:00 13.1 0 Calma 5 Nordeste 0 -- -- 55
2019-04-13 09:00:00 7.8 3 Nordeste 8 Nordeste 0 -- -- 76
2019-04-13 08:00:00 5.3 4 Nordeste 8 Nordeste 0 -- -- 86
2019-04-13 07:00:00 5.2 3 Nordeste 8 Nordeste 0 -- -- 84
2019-04-13 06:00:00 5.8 4 Nordeste 7 Nordeste 0 -- -- 83
2019-04-13 05:00:00 6.2 3 Nordeste 6 Nordeste 0 -- -- 80
2019-04-13 04:00:00 6.9 4 Nordeste 6 Nordeste 0 -- -- 80
2019-04-13 03:00:00 7.7 0 Calma 6 Nordeste 0 -- -- 73
2019-04-13 02:00:00 8.6 4 Nordeste 7 Nordeste 0 -- -- 71
2019-04-13 01:00:00 8.8 5 Nordeste 7 Nordeste 0 -- -- 71
2019-04-13 00:00:00 9.3 2 Nordeste 6 Nordeste 0 -- -- 67
2019-04-12 23:00:00 10.4 4 Nordeste 10 Nordeste 0 -- -- 74
2019-04-12 22:00:00 12.2 4 Nordeste 7 Oeste 0 -- -- 66
2019-04-12 21:00:00 15.6 4 Oeste 16 Sur 0 -- -- 52
2019-04-12 20:00:00 18.9 8 Sudoeste 24 Sudoeste 0 -- -- 39
2019-04-12 19:00:00 20.1 9 Sudoeste 27 Sudoeste 0 -- -- 37
2019-04-12 18:00:00 20.1 12 Sudoeste 22 Sudoeste 0 -- -- 36
2019-04-12 17:00:00 19.9 14 Sudoeste 24 Sur 0 -- -- 35
2019-04-12 16:00:00 18.8 9 Sudoeste 20 Sur 0 -- -- 36
2019-04-12 15:00:00 18.9 5 Nordeste 16 Oeste 0 -- -- 33
2019-04-12 14:00:00 17.7 4 Oeste 17 Nordeste 0 -- -- 38
2019-04-12 13:00:00 16.3 8 Este 20 Este 0 -- -- 42
2019-04-12 12:00:00 15.4 6 Este 15 Este 0 -- -- 43
2019-04-12 11:00:00 14.1 8 Este 18 Este 0 -- -- 47
2019-04-12 10:00:00 12.5 6 Este 12 Nordeste 0 -- -- 54
2019-04-12 09:00:00 6.7 3 Este 10 Este 0 -- -- 82
2019-04-12 08:00:00 5 6 Este 11 Este 0 -- -- 86
2019-04-12 07:00:00 4.8 7 Este 10 Este 0 -- -- 88
2019-04-12 06:00:00 5.1 5 Este 10 Nordeste 0 -- -- 87
2019-04-12 05:00:00 5.1 6 Nordeste 10 Nordeste 0 -- -- 89
2019-04-12 04:00:00 5.2 4 Nordeste 6 Nordeste 0 -- -- 89
2019-04-12 03:00:00 5.8 4 Nordeste 6 Nordeste 0 -- -- 88
2019-04-12 02:00:00 6.3 5 Nordeste 8 Nordeste 0 -- -- 83
2019-04-12 01:00:00 6.9 0 Calma 6 Este 0 -- -- 81
2019-04-12 00:00:00 7.6 4 Nordeste 8 Este 0 -- -- 79
2019-04-11 23:00:00 8.4 4 Este 9 Nordeste 0 -- -- 72
2019-04-11 22:00:00 10.2 4 Nordeste 15 Noroeste 0 -- -- 65
2019-04-11 21:00:00 14 8 Noroeste 19 Norte 0 -- -- 39
2019-04-11 20:00:00 16.1 7 Norte 24 Noroeste 0 -- -- 40
2019-04-11 19:00:00 17.4 11 Norte 24 Norte 0 -- -- 38
2019-04-11 18:00:00 16.1 9 Norte 18 Norte 0 -- -- 39
2019-04-11 17:00:00 16.2 3 Sudoeste 22 Sudoeste 0 -- -- 48
2019-04-11 16:00:00 16.2 3 Norte 23 Sudoeste 0 -- -- 53
2019-04-11 15:00:00 16 0 Calma 20 Este 0 -- -- 45
2019-04-11 14:00:00 16.5 6 Este 17 Este 0 -- -- 48
2019-04-11 13:00:00 15.1 7 Este 19 Este 0 -- -- 54
2019-04-11 12:00:00 13.6 6 Nordeste 16 Este 0 -- -- 58
2019-04-11 11:00:00 12.3 9 Nordeste 19 Este 0 -- -- 64
2019-04-11 10:00:00 10.5 6 Norte 15 Norte 0 -- -- 72
2019-04-11 09:00:00 7.4 4 Noroeste 16 Norte 0 -- -- 84
2019-04-11 08:00:00 5.9 6 Norte 15 Norte 0 -- -- 89
2019-04-11 07:00:00 6.3 5 Nordeste 15 Noroeste 0 -- -- 87
2019-04-11 06:00:00 7 4 Norte 21 Noroeste 0 -- -- 83
2019-04-11 05:00:00 7.6 7 Norte 18 Norte 0 -- -- 81
2019-04-11 04:00:00 7.9 10 Norte 18 Noroeste 0 -- -- 84
2019-04-11 03:00:00 8.9 8 Norte 18 Norte 0 -- -- 78
2019-04-11 02:00:00 8.7 5 Noroeste 12 Noroeste 0 -- -- 77
2019-04-11 01:00:00 10 5 Norte 15 Norte 0 -- -- 70
2019-04-11 00:00:00 10.8 8 Oeste 18 Oeste 0 -- -- 62
2019-04-10 23:00:00 11.2 9 Oeste 19 Oeste 0 -- -- 59
2019-04-10 22:00:00 11.6 6 Oeste 16 Oeste 0 -- -- 59
2019-04-10 21:00:00 13.4 7 Oeste 25 Oeste 0 -- -- 52
2019-04-10 20:00:00 15.1 9 Oeste 24 Oeste 0 -- -- 45
2019-04-10 19:00:00 16.9 12 Oeste 35 Oeste 0 -- -- 42
2019-04-10 18:00:00 16.8 11 Noroeste 33 Noroeste 0 -- -- 44
2019-04-10 17:00:00 17.6 10 Noroeste 34 Oeste 0 -- -- 42
2019-04-10 16:00:00 16.2 9 Oeste 31 Noroeste 0 -- -- 45
2019-04-10 15:00:00 15.5 12 Oeste 29 Sudoeste 0 -- -- 49
2019-04-10 14:00:00 13.7 10 Noroeste 27 Noroeste 0 -- -- 57
2019-04-10 13:00:00 12.6 7 Oeste 24 Oeste 0 -- -- 66
2019-04-10 12:00:00 11.1 4 Noroeste 19 Sudoeste 0 -- -- 69
2019-04-10 11:00:00 9.5 6 Oeste 14 Oeste 0 -- -- 78
2019-04-10 10:00:00 8.4 5 Oeste 23 Noroeste 0 -- -- 82
2019-04-10 09:00:00 7.5 7 Oeste 22 Noroeste 0 -- -- 86
2019-04-10 08:00:00 7 7 Oeste 23 Sudoeste 0 -- -- 89
2019-04-10 07:00:00 7 6 Oeste 32 Noroeste 0 -- -- 88
2019-04-10 06:00:00 6.9 4 Noroeste 23 Noroeste 0 -- -- 89
2019-04-10 05:00:00 7.1 8 Oeste 21 Noroeste 0 -- -- 88
2019-04-10 04:00:00 7.1 6 Sudoeste 24 Oeste 0 -- -- 84
2019-04-10 03:00:00 8.2 10 Oeste 33 Noroeste 0 -- -- 81
2019-04-10 02:00:00 8.6 8 Noroeste 39 Noroeste 0 -- -- 81
2019-04-10 01:00:00 9.1 8 Noroeste 27 Oeste 0 -- -- 81
2019-04-10 00:00:00 8.2 8 Oeste 15 Oeste 0 -- -- 89
2019-04-09 23:00:00 9.2 3 Oeste 16 Oeste 0 -- -- 82
2019-04-09 22:00:00 8.6 5 Oeste 13 Oeste 0 -- -- 87
2019-04-09 21:00:00 9.4 6 Oeste 18 Noroeste 0 -- -- 86
2019-04-09 20:00:00 10 13 Noroeste 32 Norte 0.2 -- -- 82
2019-04-09 19:00:00 11.4 7 Noroeste 38 Sudoeste 2.4 -- -- 82
2019-04-09 18:00:00 15.4 19 Sudoeste 38 Sudoeste 0 -- -- 58
2019-04-09 17:00:00 13.8 20 Sudoeste 37 Sudoeste 0 -- -- 70
2019-04-09 16:00:00 13.5 20 Sudoeste 34 Oeste 0.2 -- -- 67
2019-04-09 15:00:00 13.2 19 Sudoeste 36 Oeste 0 -- -- 69
2019-04-09 14:00:00 12.7 16 Oeste 35 Oeste 0 -- -- 68
2019-04-09 13:00:00 12.8 11 Oeste 27 Sudoeste 0 -- -- 66
2019-04-09 12:00:00 11 11 Oeste 23 Sudoeste 0 -- -- 82
2019-04-09 11:00:00 9.1 9 Sudoeste 19 Sudoeste 0 -- -- 92
2019-04-09 10:00:00 8.2 7 Sudoeste 13 Sudoeste 0 -- -- 96
2019-04-09 09:00:00 5.8 0 Calma 5 Sudoeste 0 -- -- 97
2019-04-09 08:00:00 5.1 0 Calma 6 Sudoeste 0 -- -- 96
2019-04-09 07:00:00 4.8 0 Calma 5 Noroeste 0.2 -- -- 96
2019-04-09 06:00:00 4.9 0 Calma 8 Sudoeste 0 -- -- 95
2019-04-09 05:00:00 5.6 5 Oeste 11 Oeste 0 -- -- 94
2019-04-09 04:00:00 6.2 4 Noroeste 16 Oeste 0 -- -- 93
2019-04-09 03:00:00 6 5 Oeste 11 Oeste 0 -- -- 95
2019-04-09 02:00:00 6.2 3 Oeste 9 Sudoeste 0 -- -- 94
2019-04-09 01:00:00 7.6 4 Oeste 15 Noroeste 0 -- -- 91
2019-04-09 00:00:00 9.2 3 Noroeste 21 Norte 0.6 -- -- 91
2019-04-08 23:00:00 10.8 14 Sudoeste 26 Oeste 0 -- -- 95
2019-04-08 22:00:00 10.8 10 Sudoeste 27 Sudoeste 0.4 -- -- 94
2019-04-08 21:00:00 11 14 Sudoeste 32 Sudoeste 0 -- -- 95
2019-04-08 20:00:00 11.7 17 Sudoeste 28 Sur 0 -- -- 95
2019-04-08 19:00:00 12.2 10 Sudoeste 23 Sudoeste 1.4 -- -- 95
2019-04-08 18:00:00 12.4 17 Sudoeste 36 Sudoeste 1.8 -- -- 94
2019-04-08 17:00:00 13.5 15 Sudoeste 33 Sudoeste 0 -- -- 92
2019-04-08 16:00:00 13 16 Sudoeste 41 Sudoeste 0 -- -- 94
2019-04-08 15:00:00 12.1 18 Sudoeste 32 Sudoeste 0.8 -- -- 93
2019-04-08 14:00:00 12 17 Sudoeste 37 Sudoeste 1.8 -- -- 94
2019-04-08 13:00:00 11.4 19 Sudoeste 36 Oeste 1.6 -- -- 94
2019-04-08 12:00:00 11.6 17 Sudoeste 33 Sudoeste 1.2 -- -- 96
2019-04-08 11:00:00 10.6 18 Sudoeste 35 Sudoeste 0.4 -- -- 96
2019-04-08 10:00:00 10.6 11 Sudoeste 30 Oeste 0.2 -- -- 96
2019-04-08 09:00:00 10.4 14 Sudoeste 22 Sudoeste 0.6 -- -- 96
2019-04-08 08:00:00 10.3 14 Sudoeste 26 Oeste 0.2 -- -- 96
2019-04-08 07:00:00 10.5 13 Sudoeste 28 Sudoeste 0 -- -- 96
2019-04-08 06:00:00 10.6 16 Sudoeste 31 Sudoeste 0 -- -- 96
2019-04-08 05:00:00 10.6 9 Oeste 23 Sudoeste 0 -- -- 97
2019-04-08 04:00:00 10.7 17 Sudoeste 27 Oeste 2.8 -- -- 97
2019-04-08 03:00:00 10.6 10 Sudoeste 19 Sudoeste 0.2 -- -- 97
2019-04-08 02:00:00 10.5 9 Sudoeste 19 Sudoeste 0 -- -- 97
2019-04-08 01:00:00 10.6 6 Sudoeste 13 Sudoeste 0 -- -- 97
2019-04-08 00:00:00 10.5 4 Sudoeste 14 Oeste 0 -- -- 97
2019-04-07 23:00:00 10.2 5 Oeste 9 Oeste 0.4 -- -- 97
2019-04-07 22:00:00 10 3 Sudoeste 7 Sudoeste 0.2 -- -- 96
2019-04-07 21:00:00 9.9 4 Sudoeste 15 Oeste 0.2 -- -- 96
2019-04-07 20:00:00 9.9 11 Sudoeste 20 Sudoeste 0 -- -- 95
2019-04-07 19:00:00 10.1 10 Sudoeste 21 Sudoeste 0.4 -- -- 94
2019-04-07 18:00:00 10 11 Sudoeste 23 Sudoeste 0.2 -- -- 92
2019-04-07 17:00:00 11.3 14 Sudoeste 27 Sudoeste 0 -- -- 80
2019-04-07 16:00:00 10.7 12 Sudoeste 30 Sudoeste 0 -- -- 80
2019-04-07 15:00:00 11 16 Sudoeste 27 Sudoeste 0 -- -- 76
2019-04-07 14:00:00 11.6 9 Oeste 22 Oeste 0 -- -- 68
2019-04-07 13:00:00 11.7 12 Oeste 26 Sudoeste 0 -- -- 65
2019-04-07 12:00:00 10.8 14 Sudoeste 27 Sudoeste 0.2 -- -- 70
2019-04-07 11:00:00 9.8 10 Oeste 19 Oeste 0 -- -- 76
2019-04-07 10:00:00 8.5 11 Oeste 24 Oeste 0 -- -- 79
2019-04-07 09:00:00 6.9 6 Oeste 17 Oeste 0 -- -- 87
2019-04-07 08:00:00 6.3 10 Oeste 18 Oeste 0 -- -- 90
2019-04-07 07:00:00 6.5 12 Oeste 20 Oeste 0 -- -- 88
2019-04-07 06:00:00 6.4 11 Oeste 24 Oeste 0 -- -- 89
2019-04-07 05:00:00 6 9 Sudoeste 25 Oeste 0 -- -- 89
2019-04-07 04:00:00 6.3 13 Sudoeste 24 Oeste 0 -- -- 87
2019-04-07 03:00:00 6.8 14 Sudoeste 30 Oeste 0 -- -- 84
2019-04-07 02:00:00 6.8 10 Oeste 22 Sudoeste 0 -- -- 85
2019-04-07 01:00:00 7.3 12 Oeste 24 Oeste 0 -- -- 81
2019-04-07 00:00:00 6.6 10 Oeste 21 Oeste 0 -- -- 87
2019-04-06 23:00:00 6.3 6 Oeste 13 Oeste 0 -- -- 87
2019-04-06 22:00:00 6.3 7 Oeste 18 Oeste 0 -- -- 86
2019-04-06 21:00:00 7.5 7 Oeste 22 Oeste 0 -- -- 79
2019-04-06 20:00:00 8.8 8 Oeste 22 Oeste 0 -- -- 73
2019-04-06 19:00:00 9.1 7 Oeste 29 Noroeste 0 -- -- 85
2019-04-06 18:00:00 7.7 11 Noroeste 33 Sudoeste 2.6 -- -- 84
2019-04-06 17:00:00 11.3 16 Sudoeste 38 Oeste 0 -- -- 73
2019-04-06 16:00:00 11.8 20 Sudoeste 39 Sudoeste 0 -- -- 68
2019-04-06 15:00:00 9.5 15 Oeste 28 Oeste 0 -- -- 78
2019-04-06 14:00:00 8.8 11 Sudoeste 34 Sudoeste 1.8 -- -- 92
2019-04-06 13:00:00 7.3 15 Sudoeste 28 Sudoeste 0.6 -- -- 90
2019-04-06 12:00:00 8.6 8 Sudoeste 23 Sudoeste 0 -- -- 84
2019-04-06 11:00:00 6.7 10 Sudoeste 17 Sudoeste 0 -- -- 94
2019-04-06 10:00:00 5.6 9 Sudoeste 21 Sudoeste 0.4 -- -- 94
2019-04-06 09:00:00 5.3 11 Sudoeste 26 Sudoeste 0 -- -- 94
2019-04-06 08:00:00 5 9 Sudoeste 19 Sudoeste 0 -- -- 93
2019-04-06 07:00:00 5.2 7 Oeste 21 Sudoeste 0 -- -- 93
2019-04-06 06:00:00 5.3 10 Oeste 30 Sudoeste 0 -- -- 92
2019-04-06 05:00:00 5.3 17 Sudoeste 28 Oeste 0 -- -- 92
2019-04-06 04:00:00 5.1 14 Sudoeste 26 Sudoeste 0 -- -- 91
2019-04-06 03:00:00 4.8 12 Sudoeste 24 Oeste 0 -- -- 89
2019-04-06 02:00:00 5 9 Oeste 21 Oeste 0 -- -- 88
2019-04-06 01:00:00 5.1 11 Oeste 25 Sudoeste 0 -- -- 90
2019-04-06 00:00:00 5.5 11 Oeste 21 Oeste 0 -- -- 87
2019-04-05 23:00:00 5.8 10 Oeste 21 Oeste 0.2 -- -- 86
2019-04-05 22:00:00 7.4 13 Oeste 42 Sudoeste 0 -- -- 71
2019-04-05 21:00:00 8.4 23 Sudoeste 42 Sudoeste 0 -- -- 66
2019-04-05 20:00:00 10.6 16 Sudoeste 33 Sudoeste 0 -- -- 50
2019-04-05 19:00:00 11.7 13 Oeste 34 Oeste 0 -- -- 44
2019-04-05 18:00:00 11.9 14 Oeste 36 Oeste 0 -- -- 50
2019-04-05 17:00:00 9.8 13 Sudoeste 38 Oeste 5.2 -- -- 82
2019-04-05 16:00:00 12 12 Oeste 40 Sudoeste 0 -- -- 52
2019-04-05 15:00:00 10.9 18 Oeste 31 Oeste 0 -- -- 67
2019-04-05 14:00:00 9.4 6 Oeste 34 Noroeste 2.8 -- -- 93
2019-04-05 13:00:00 8.3 14 Sudoeste 30 Sudoeste 0 -- -- 96
2019-04-05 12:00:00 7.4 16 Sudoeste 27 Sudoeste 0.6 -- -- 96
2019-04-05 11:00:00 6.7 7 Sudoeste 23 Sudoeste 2 -- -- 95
2019-04-05 10:00:00 6.2 7 Sudoeste 22 Sudoeste 0.2 -- -- 94
2019-04-05 09:00:00 6 4 Sur 17 Oeste 2.8 -- -- 93
2019-04-05 08:00:00 6.3 4 Oeste 16 Sudoeste 2.4 -- -- 92
2019-04-05 07:00:00 7 12 Sudoeste 31 Oeste 0 -- -- 79
2019-04-05 06:00:00 7.2 10 Sudoeste 24 Sudoeste 0 -- -- 75
2019-04-05 05:00:00 7 14 Sudoeste 32 Oeste 0 -- -- 76
2019-04-05 04:00:00 7.2 17 Sudoeste 29 Sudoeste 0 -- -- 77
2019-04-05 03:00:00 7.5 12 Sudoeste 30 Sudoeste 0 -- -- 75
2019-04-05 02:00:00 7.8 20 Sudoeste 35 Sudoeste 0 -- -- 73
2019-04-05 01:00:00 8 21 Sudoeste 39 Sudoeste 0 -- -- 70
2019-04-05 00:00:00 8.8 24 Sudoeste 45 Sudoeste 0 -- -- 63
2019-04-04 23:00:00 10 22 Sudoeste 40 Oeste 0 -- -- 56
2019-04-04 22:00:00 11.5 22 Sudoeste 39 Sudoeste 0 -- -- 44
2019-04-04 21:00:00 12.7 23 Sudoeste 37 Sudoeste 0 -- -- 38
2019-04-04 20:00:00 14.4 24 Sudoeste 37 Sudoeste 0 -- -- 32
2019-04-04 19:00:00 15.8 24 Sudoeste 36 Sudoeste 0 -- -- 34
2019-04-04 18:00:00 16.4 20 Sudoeste 37 Sudoeste 0 -- -- 34
2019-04-04 17:00:00 17 14 Sudoeste 30 Sudoeste 0 -- -- 34
2019-04-04 16:00:00 16.4 12 Sudoeste 27 Sudoeste 0 -- -- 35
2019-04-04 15:00:00 15.8 10 Sur 18 Este 0 -- -- 35
2019-04-04 14:00:00 14.3 8 Este 20 Este 0 -- -- 35
2019-04-04 13:00:00 13.6 8 Este 24 Este 0 -- -- 36
2019-04-04 12:00:00 12.9 10 Este 23 Este 0 -- -- 38
2019-04-04 11:00:00 11.3 10 Este 22 Este 0 -- -- 43
2019-04-04 10:00:00 8.8 7 Nordeste 19 Norte 0 -- -- 52
2019-04-04 09:00:00 5.4 7 Norte 20 Norte 0 -- -- 63
2019-04-04 08:00:00 4.3 9 Norte 23 Norte 0 -- -- 64
2019-04-04 07:00:00 5.6 9 Noroeste 27 Noroeste 0 -- -- 55
2019-04-04 06:00:00 6.6 8 Noroeste 19 Noroeste 0 -- -- 52
2019-04-04 05:00:00 7.5 10 Noroeste 29 Noroeste 0 -- -- 49
2019-04-04 04:00:00 8 8 Norte 20 Norte 0 -- -- 48
2019-04-04 03:00:00 8.3 3 Noroeste 13 Norte 0 -- -- 46
2019-04-04 02:00:00 8.9 2 Noroeste 12 Norte 0 -- -- 45
2019-04-04 01:00:00 10 4 Noroeste 19 Norte 0 -- -- 43
2019-04-04 00:00:00 10.8 8 Norte 24 Noroeste 0 -- -- 42
2019-04-03 23:00:00 12.3 13 Norte 28 Norte 0 -- -- 52
2019-04-03 22:00:00 13.2 8 Noroeste 23 Noroeste 0 -- -- 51
2019-04-03 21:00:00 14.5 9 Noroeste 33 Noroeste 0 -- -- 48
2019-04-03 20:00:00 16.9 15 Noroeste 32 Norte 0 -- -- 43
2019-04-03 19:00:00 18.3 10 Oeste 41 Sudoeste 0 -- -- 37
2019-04-03 18:00:00 20 23 Sudoeste 43 Sudoeste 0 -- -- 37
2019-04-03 17:00:00 19.1 24 Sudoeste 45 Sudoeste 0 -- -- 41
2019-04-03 16:00:00 19.5 26 Sudoeste 42 Sudoeste 0 -- -- 40
2019-04-03 15:00:00 20 19 Sudoeste 32 Oeste 0 -- -- 40
2019-04-03 14:00:00 19.5 12 Sudoeste 28 Sudoeste 0 -- -- 41
2019-04-03 13:00:00 17.1 8 Sudoeste 18 Sudoeste 0 -- -- 55
2019-04-03 12:00:00 17.7 7 Sudoeste 17 Sudoeste 0 -- -- 45
2019-04-03 11:00:00 16.4 2 Noroeste 12 Norte 0 -- -- 52
2019-04-03 10:00:00 11.9 2 Sur 6 Nordeste 0 -- -- 78
2019-04-03 09:00:00 7.7 0 Calma 7 Nordeste 0 -- -- 96
2019-04-03 08:00:00 7.4 4 Nordeste 7 Nordeste 0 -- -- 94
2019-04-03 07:00:00 7.3 3 Nordeste 6 Nordeste 0 -- -- 93
2019-04-03 06:00:00 8.1 3 Este 9 Noroeste 0 -- -- 89
2019-04-03 05:00:00 8.1 4 Norte 10 Noroeste 0 -- -- 92
2019-04-03 04:00:00 8.4 4 Nordeste 7 Nordeste 0 -- -- 92
2019-04-03 03:00:00 8.5 4 Nordeste 8 Nordeste 0 -- -- 91
2019-04-03 02:00:00 9.3 3 Nordeste 4 Nordeste 0 -- -- 89
2019-04-03 01:00:00 10.4 0 Calma 7 Sudoeste 0 -- -- 85
2019-04-03 00:00:00 12.1 4 Sudoeste 12 Oeste 0 -- -- 75
2019-04-02 23:00:00 12.8 4 Oeste 13 Oeste 0 -- -- 74
2019-04-02 22:00:00 14 8 Oeste 15 Oeste 0 -- -- 68
2019-04-02 21:00:00 15.1 9 Sudoeste 23 Sudoeste 0 -- -- 63
2019-04-02 20:00:00 16.8 17 Sudoeste 27 Sudoeste 0 -- -- 56
2019-04-02 19:00:00 18.6 14 Sudoeste 23 Sudoeste 0 -- -- 53
2019-04-02 18:00:00 19.2 12 Sudoeste 23 Sur 0 -- -- 52
2019-04-02 17:00:00 18.5 8 Sudoeste 18 Sudoeste 0 -- -- 55
2019-04-02 16:00:00 17.5 9 Sur 22 Sudoeste 0 -- -- 58
2019-04-02 15:00:00 17.1 4 Sur 15 Sudeste 0 -- -- 59
2019-04-02 14:00:00 16.9 6 Sudeste 14 Este 0 -- -- 58
2019-04-02 13:00:00 14.4 2 Nordeste 10 Sudoeste 0 -- -- 65
2019-04-02 12:00:00 13.3 2 Nordeste 8 Norte 0 -- -- 71
2019-04-02 11:00:00 12 4 Norte 11 Noroeste 0 -- -- 82
2019-04-02 10:00:00 11.4 2 Norte 8 Sur 0 -- -- 85
2019-04-02 09:00:00 10.3 3 Sudoeste 5 Sudoeste 0 -- -- 95
2019-04-02 08:00:00 10.1 0 Calma 9 Oeste 0 -- -- 94
2019-04-02 07:00:00 10.2 3 Sudoeste 9 Sudoeste 0 -- -- 95
2019-04-02 06:00:00 10.4 4 Sudoeste 10 Sudoeste 0 -- -- 94
2019-04-02 05:00:00 10.6 3 Sur 8 Sur 0 -- -- 94
2019-04-02 04:00:00 10.3 0 Calma 7 Sudoeste 0 -- -- 94
2019-04-02 03:00:00 10 3 Sur 5 Sur 0 -- -- 93
2019-04-02 02:00:00 9.6 2 Sudoeste 8 Sudoeste 0 -- -- 95
2019-04-02 01:00:00 8.7 4 Sudoeste 5 Sudoeste 0 -- -- 93
2019-04-02 00:00:00 8.7 0 Calma 5 Nordeste 0 -- -- 92
2019-04-01 23:00:00 9.3 0 Calma 4 Oeste 0 -- -- 88
2019-04-01 22:00:00 10.7 3 Norte 22 Sudoeste 0 -- -- 84
2019-04-01 21:00:00 11.7 8 Sudoeste 22 Sudoeste 0 -- -- 80
2019-04-01 20:00:00 12.6 10 Sudoeste 23 Oeste 0 -- -- 74
2019-04-01 19:00:00 13.1 11 Sudoeste 32 Sudoeste 0.2 -- -- 74
2019-04-01 18:00:00 14.4 17 Sudoeste 27 Sudoeste 0 -- -- 71
2019-04-01 17:00:00 16.2 10 Sudoeste 20 Sudoeste 0 -- -- 64
2019-04-01 16:00:00 12.9 4 Sudoeste 30 Sudoeste 0.2 -- -- 77
2019-04-01 15:00:00 12.8 9 Sudoeste 29 Oeste 0 -- -- 77
2019-04-01 14:00:00 16.8 12 Sudoeste 19 Sudoeste 0 -- -- 60
2019-04-01 13:00:00 14.3 10 Sudoeste 22 Sudoeste 0 -- -- 69
2019-04-01 12:00:00 13.3 12 Sudoeste 19 Sudoeste 0 -- -- 78
2019-04-01 11:00:00 12.1 6 Sudoeste 13 Sudoeste 0 -- -- 87
2019-04-01 10:00:00 11.9 0 Calma 6 Sudoeste 0 -- -- 95
2019-04-01 09:00:00 10.6 0 Calma 2 Sudoeste 0 -- -- 96
2019-04-01 08:00:00 10.3 0 Calma 2 Sudoeste 0 -- -- 96
2019-04-01 07:00:00 10.1 2 Este 5 Este 0.2 -- -- 95
2019-04-01 06:00:00 10 0 Calma 3 Este 0 -- -- 95
2019-04-01 05:00:00 10.1 0 Calma 4 Este 0 -- -- 95
2019-04-01 04:00:00 10.1 0 Calma 5 Sur 0 -- -- 95
2019-04-01 03:00:00 10.4 2 Este 4 Este 0 -- -- 95
2019-04-01 02:00:00 10.1 0 Calma 5 Oeste 0 -- -- 94
2019-04-01 01:00:00 10.4 3 Sudoeste 11 Sudoeste 0 -- -- 94
2019-04-01 00:00:00 10.4 4 Sudoeste 8 Sudoeste 0 -- -- 93
2019-03-31 23:00:00 10.9 3 Nordeste 8 Nordeste 0 -- -- 91
2019-03-31 22:00:00 11.1 3 Nordeste 6 Nordeste 0 -- -- 91
2019-03-31 21:00:00 11.5 2 Norte 9 Oeste 0 -- -- 88
2019-03-31 20:00:00 12.3 4 Sudoeste 14 Oeste 0.4 -- -- 88
2019-03-31 19:00:00 14.2 3 Sudeste 11 Sudeste 0.2 -- -- 81
2019-03-31 18:00:00 15 5 Sudeste 19 Este 0 -- -- 69
2019-03-31 17:00:00 16.8 7 Este 19 Este 0 -- -- 65
2019-03-31 16:00:00 16.5 6 Este 15 Sudeste 0 -- -- 65
2019-03-31 15:00:00 16.1 6 Este 15 Este 0 -- -- 65
2019-03-31 14:00:00 14.9 4 Sudeste 14 Nordeste 0 -- -- 74
2019-03-31 13:00:00 14 5 Este 13 Este 0 -- -- 79
2019-03-31 12:00:00 12.1 2 Sudoeste 10 Este 0 -- -- 90
2019-03-31 11:00:00 10.9 5 Nordeste 9 Este 0.2 -- -- 93
2019-03-31 10:00:00 10.4 4 Este 8 Nordeste 0 -- -- 94
2019-03-31 09:00:00 10.1 2 Nordeste 4 Nordeste 0.2 -- -- 94
2019-03-31 08:00:00 10.1 3 Este 6 Este 0.4 -- -- 92
2019-03-31 07:00:00 10.5 3 Este 8 Este 0.4 -- -- 89
2019-03-31 06:00:00 11.1 0 Calma 4 Sur 0.4 -- -- 85
2019-03-31 05:00:00 11.4 0 Calma 5 Este 0 -- -- 77
2019-03-31 03:00:00 11.8 4 Sudoeste 23 Sudoeste 0 -- -- 72
2019-03-31 01:00:00 12 13 Sudoeste 24 Sudoeste 0 -- -- 72
2019-03-31 00:00:00 12.2 9 Oeste 21 Sudoeste 0 -- -- 70
2019-03-30 23:00:00 12.6 10 Sudoeste 15 Sudoeste 0 -- -- 67
2019-03-30 22:00:00 13.3 6 Oeste 17 Sudoeste 0 -- -- 64
2019-03-30 21:00:00 13.5 12 Sudoeste 30 Sudoeste 0 -- -- 63
2019-03-30 20:00:00 14.9 19 Sudoeste 33 Sudoeste 0 -- -- 58
2019-03-30 19:00:00 18.4 12 Sudoeste 20 Sudoeste 0 -- -- 47
2019-03-30 18:00:00 19.4 6 Sudoeste 18 Sudoeste 0 -- -- 40
2019-03-30 17:00:00 21.2 9 Sur 20 Sur 0 -- -- 34
2019-03-30 16:00:00 21.4 6 Sudoeste 20 Sur 0 -- -- 35
2019-03-30 15:00:00 21.1 7 Sur 21 Sur 0 -- -- 35
2019-03-30 14:00:00 20 5 Sur 23 Este 0 -- -- 36
2019-03-30 13:00:00 18.6 8 Este 20 Este 0 -- -- 38
2019-03-30 12:00:00 16.9 9 Sudeste 19 Sudeste 0 -- -- 41
2019-03-30 11:00:00 15.2 10 Nordeste 18 Nordeste 0 -- -- 46
2019-03-30 10:00:00 13.1 10 Nordeste 19 Nordeste 0 -- -- 54
2019-03-30 09:00:00 10.7 8 Nordeste 17 Este 0 -- -- 67
2019-03-30 08:00:00 6 0 Calma 8 Nordeste 0 -- -- 94
2019-03-30 07:00:00 5.4 2 Nordeste 8 Nordeste 0 -- -- 93
2019-03-30 06:00:00 5.9 4 Nordeste 8 Nordeste 0 -- -- 92
2019-03-30 05:00:00 6.8 4 Nordeste 6 Nordeste 0 -- -- 91
2019-03-30 04:00:00 7.5 3 Nordeste 7 Sudoeste 0 -- -- 89
2019-03-30 03:00:00 7.9 3 Sudoeste 7 Sudoeste 0 -- -- 85
2019-03-30 02:00:00 7.8 6 Sudoeste 9 Sudoeste 0 -- -- 82
2019-03-30 01:00:00 9 6 Sudoeste 10 Sudoeste 0 -- -- 77
2019-03-30 00:00:00 10.5 8 Sudoeste 21 Sudoeste 0 -- -- 69
2019-03-29 23:00:00 12.3 7 Sudoeste 11 Sudoeste 0 -- -- 59
2019-03-29 22:00:00 13 4 Sur 13 Sudoeste 0 -- -- 56
2019-03-29 21:00:00 13.7 8 Sudoeste 19 Sudoeste 0 -- -- 53
2019-03-29 20:00:00 14.4 11 Sudoeste 27 Sudoeste 0 -- -- 50
2019-03-29 19:00:00 17.3 9 Sudoeste 17 Sudoeste 0 -- -- 40
2019-03-29 18:00:00 19.4 5 Oeste 20 Sudoeste 0 -- -- 31
2019-03-29 17:00:00 19.7 8 Sudoeste 24 Sur 0 -- -- 28
2019-03-29 16:00:00 19.4 9 Sudoeste 21 Sudoeste 0 -- -- 27
2019-03-29 15:00:00 19 9 Sur 27 Sudoeste 0 -- -- 26
2019-03-29 14:00:00 18.4 7 Sudeste 21 Este 0 -- -- 25
2019-03-29 13:00:00 16.8 10 Este 21 Este 0 -- -- 24
2019-03-29 12:00:00 15.7 7 Este 20 Este 0 -- -- 31
2019-03-29 11:00:00 13.7 8 Este 20 Este 0 -- -- 34
2019-03-29 10:00:00 12.2 9 Este 19 Este 0 -- -- 34
2019-03-29 09:00:00 8.9 4 Este 9 Sudeste 0 -- -- 44
2019-03-29 08:00:00 2.2 3 Nordeste 8 Nordeste 0 -- -- 81
2019-03-29 07:00:00 1.8 4 Nordeste 8 Este 0 -- -- 83
2019-03-29 06:00:00 2.2 4 Nordeste 8 Nordeste 0 -- -- 85
2019-03-29 05:00:00 2.9 2 Nordeste 6 Nordeste 0 -- -- 85
2019-03-29 04:00:00 3.6 0 Calma 6 Este 0 -- -- 85
2019-03-29 03:00:00 4.1 3 Nordeste 8 Nordeste 0 -- -- 83
2019-03-29 02:00:00 4.9 6 Nordeste 9 Este 0 -- -- 80
2019-03-29 01:00:00 5.9 4 Nordeste 6 Nordeste 0 -- -- 76
2019-03-29 00:00:00 7.2 2 Nordeste 4 Norte 0 -- -- 65
2019-03-28 23:00:00 8.7 0 Calma 14 Sur 0 -- -- 58
2019-03-28 22:00:00 10.2 8 Sudoeste 19 Sudoeste 0 -- -- 46
2019-03-28 21:00:00 11.9 11 Sudoeste 26 Sudoeste 0 -- -- 39
2019-03-28 20:00:00 13.5 2 Norte 5 Norte 0 -- -- 37
2019-03-28 19:00:00 18.7 3 Sudeste 11 Sudeste 0 -- -- 18
2019-03-28 18:00:00 19.5 4 Este 16 Sudeste 0 -- -- 17
2019-03-28 17:00:00 19.7 6 Sudeste 20 Este 0 -- -- 17
2019-03-28 16:00:00 18.9 10 Este 19 Sudeste 0 -- -- 20
2019-03-28 15:00:00 17.9 9 Este 24 Sudeste 0 -- -- 22
2019-03-28 14:00:00 17.3 8 Sudeste 23 Este 0 -- -- 22
2019-03-28 13:00:00 15.7 10 Este 23 Este 0 -- -- 23
2019-03-28 12:00:00 14.5 9 Este 22 Este 0 -- -- 30
2019-03-28 11:00:00 13.7 6 Este 27 Este 0 -- -- 31
2019-03-28 10:00:00 12.1 9 Este 23 Este 0 -- -- 34
2019-03-28 09:00:00 10.1 12 Este 21 Este 0 -- -- 40
2019-03-28 08:00:00 5 5 Nordeste 9 Nordeste 0 -- -- 95
2019-03-28 07:00:00 4.9 3 Nordeste 8 Norte 0 -- -- 94
2019-03-28 06:00:00 4.9 5 Este 9 Este 0 -- -- 93
2019-03-28 05:00:00 5.1 4 Nordeste 6 Nordeste 0 -- -- 92
2019-03-28 04:00:00 5.9 3 Nordeste 4 Nordeste 0 -- -- 89
2019-03-28 03:00:00 6.9 2 Norte 6 Oeste 0 -- -- 87
2019-03-28 02:00:00 7.8 4 Sudoeste 13 Sudoeste 0 -- -- 79
2019-03-28 01:00:00 8.5 7 Oeste 15 Sur 0 -- -- 77
2019-03-28 00:00:00 9.1 9 Sudoeste 22 Sudoeste 0 -- -- 71
2019-03-27 23:00:00 9.3 6 Sudoeste 18 Sudoeste 0 -- -- 64
2019-03-27 22:00:00 10.3 11 Sudoeste 17 Oeste 0 -- -- 56
2019-03-27 21:00:00 10.4 8 Sudoeste 19 Sudoeste 0 -- -- 46
2019-03-27 20:00:00 13.8 3 Norte 13 Este 0 -- -- 31
2019-03-27 19:00:00 17.7 5 Sudeste 22 Este 0 -- -- 21
2019-03-27 18:00:00 19.1 10 Sudeste 21 Sudeste 0 -- -- 20
2019-03-27 17:00:00 19.1 11 Este 24 Sur 0 -- -- 21
2019-03-27 16:00:00 19.2 12 Este 26 Sudeste 0 -- -- 21
2019-03-27 15:00:00 18.8 13 Sudeste 30 Sudeste 0 -- -- 22
2019-03-27 14:00:00 18.5 9 Sudeste 32 Este 0 -- -- 23
2019-03-27 13:00:00 16.6 16 Este 36 Este 0 -- -- 24
2019-03-27 12:00:00 15.6 14 Nordeste 30 Este 0 -- -- 34
2019-03-27 11:00:00 14.2 14 Nordeste 36 Este 0 -- -- 30
2019-03-27 10:00:00 12.5 16 Este 34 Nordeste 0 -- -- 34
2019-03-27 09:00:00 11.5 10 Este 25 Este 0 -- -- 37
2019-03-27 08:00:00 9 9 Nordeste 24 Nordeste 0 -- -- 44
2019-03-27 07:00:00 8.3 7 Nordeste 17 Nordeste 0 -- -- 54
2019-03-27 06:00:00 6.4 5 Nordeste 8 Nordeste 0 -- -- 71
2019-03-27 05:00:00 7.3 2 Norte 6 Nordeste 0 -- -- 71
2019-03-27 04:00:00 9.2 0 Calma 9 Sudeste 0 -- -- 61
2019-03-27 03:00:00 10.8 3 Sudeste 13 Nordeste 0 -- -- 54
2019-03-27 02:00:00 12.5 8 Nordeste 25 Nordeste 0 -- -- 52
2019-03-27 01:00:00 13.5 11 Nordeste 28 Este 0 -- -- 53
2019-03-27 00:00:00 13 10 Nordeste 17 Este 0 -- -- 55
2019-03-26 23:00:00 11.8 3 Nordeste 9 Este 0 -- -- 70
2019-03-26 22:00:00 12.4 0 Calma 8 Nordeste 0 -- -- 63
2019-03-26 21:00:00 14.7 2 Sudoeste 17 Sudoeste 0 -- -- 51
2019-03-26 20:00:00 16.8 12 Sudoeste 18 Sudoeste 0 -- -- 44
2019-03-26 19:00:00 21.5 3 Este 14 Este 0 -- -- 26
2019-03-26 18:00:00 22.7 7 Este 18 Este 0 -- -- 23
2019-03-26 17:00:00 23.9 11 Este 28 Sudeste 0 -- -- 20
2019-03-26 16:00:00 23.1 11 Este 25 Este 0 -- -- 20
2019-03-26 15:00:00 23.9 8 Este 27 Sudeste 0 -- -- 20
2019-03-26 14:00:00 22.5 9 Sudeste 27 Sudeste 0 -- -- 21
2019-03-26 13:00:00 22.2 11 Este 27 Sudeste 0 -- -- 22
2019-03-26 12:00:00 20.7 10 Este 29 Sudeste 0 -- -- 23
2019-03-26 11:00:00 18.6 16 Este 33 Este 0 -- -- 28
2019-03-26 10:00:00 17.1 15 Este 30 Este 0 -- -- 30
2019-03-26 09:00:00 15.1 10 Nordeste 18 Nordeste 0 -- -- 36
2019-03-26 08:00:00 11.8 6 Nordeste 14 Nordeste 0 -- -- 57
2019-03-26 07:00:00 9.8 6 Nordeste 13 Norte 0 -- -- 66
2019-03-26 06:00:00 8.7 4 Nordeste 8 Nordeste 0 -- -- 68
2019-03-26 05:00:00 9 5 Nordeste 9 Nordeste 0 -- -- 70
2019-03-26 04:00:00 8 3 Nordeste 8 Nordeste 0 -- -- 81
2019-03-26 03:00:00 7.6 4 Nordeste 6 Nordeste 0 -- -- 81
2019-03-26 02:00:00 7.7 3 Nordeste 8 Nordeste 0 -- -- 83
2019-03-26 01:00:00 8.2 4 Nordeste 8 Nordeste 0 -- -- 77
2019-03-26 00:00:00 9.3 4 Norte 7 Nordeste 0 -- -- 78
2019-03-25 23:00:00 11.3 0 Calma 5 Noroeste 0 -- -- 66
2019-03-25 22:00:00 12.8 5 Sudoeste 14 Sur 0 -- -- 51
2019-03-25 21:00:00 13.4 2 Este 5 Nordeste 0 -- -- 56
2019-03-25 20:00:00 17 4 Nordeste 8 Este 0 -- -- 40
2019-03-25 19:00:00 20.4 4 Este 24 Este 0 -- -- 30
2019-03-25 18:00:00 21.9 6 Este 26 Nordeste 0 -- -- 28
2019-03-25 17:00:00 22.2 8 Este 25 Este 0 -- -- 29
2019-03-25 16:00:00 22.3 10 Este 30 Este 0 -- -- 27
2019-03-25 15:00:00 22.1 9 Este 32 Este 0 -- -- 29
2019-03-25 14:00:00 21.5 8 Sudeste 26 Sudeste 0 -- -- 30
2019-03-25 13:00:00 19.9 8 Este 27 Sudeste 0 -- -- 33
2019-03-25 12:00:00 19 8 Este 23 Sudeste 0 -- -- 36
2019-03-25 11:00:00 16.8 14 Nordeste 27 Este 0 -- -- 44
2019-03-25 10:00:00 15.2 13 Nordeste 26 Nordeste 0 -- -- 43
2019-03-25 09:00:00 12.1 5 Nordeste 10 Nordeste 0 -- -- 65
2019-03-25 08:00:00 8.1 5 Nordeste 9 Nordeste 0 -- -- 78
2019-03-25 07:00:00 6.7 4 Nordeste 7 Nordeste 0 -- -- 87
2019-03-25 06:00:00 6.9 5 Nordeste 8 Nordeste 0 -- -- 87
2019-03-25 05:00:00 6.9 3 Nordeste 5 Nordeste 0 -- -- 88
2019-03-25 04:00:00 7.5 4 Nordeste 6 Nordeste 0 -- -- 85
2019-03-25 03:00:00 8.7 3 Nordeste 9 Nordeste 0 -- -- 80
2019-03-25 02:00:00 9.4 4 Nordeste 7 Nordeste 0 -- -- 81
2019-03-25 01:00:00 9.8 0 Calma 7 Nordeste 0 -- -- 73
2019-03-25 00:00:00 9.3 4 Este 9 Nordeste 0 -- -- 74